createdAt,value
2018-03-24T00:01:38.972Z,96.08
2018-03-24T00:02:38.853Z,95.88
2018-03-24T00:04:31.619Z,95.88
2018-03-24T00:05:31.512Z,96.36
2018-03-24T00:07:24.237Z,96.08
2018-03-24T00:08:24.201Z,96.26
2018-03-24T00:10:16.916Z,96.26
2018-03-24T00:11:16.783Z,95.79
2018-03-24T00:13:09.532Z,95.69
2018-03-24T00:14:09.448Z,95.69
2018-03-24T00:16:02.232Z,95.69
2018-03-24T00:17:02.130Z,95.88
2018-03-24T00:18:54.858Z,96.26
2018-03-24T00:19:54.748Z,96.36
2018-03-24T00:21:47.488Z,96.45
2018-03-24T00:22:47.376Z,96.45
2018-03-24T00:24:40.125Z,96.64
2018-03-24T00:25:40.021Z,96.73
2018-03-24T00:27:32.782Z,96.36
2018-03-24T00:28:32.667Z,96.64
2018-03-24T00:30:25.447Z,96.64
2018-03-24T00:31:25.315Z,96.64
2018-03-24T00:33:18.091Z,96.73
2018-03-24T00:34:17.958Z,96.17
2018-03-24T00:36:10.733Z,95.88
2018-03-24T00:37:10.634Z,96.08
2018-03-24T00:39:03.372Z,95.98
2018-03-24T00:40:03.262Z,96.73
2018-03-24T00:41:56.032Z,96.55
2018-03-24T00:42:55.911Z,96.55
2018-03-24T00:44:48.657Z,96.26
2018-03-24T00:45:48.596Z,96.17
2018-03-24T00:47:41.405Z,96.36
2018-03-24T00:48:41.201Z,96.17
2018-03-24T00:50:34.045Z,96.17
2018-03-24T00:51:33.944Z,96.08
2018-03-24T00:53:26.724Z,96.17
2018-03-24T00:54:26.618Z,96.73
2018-03-24T00:56:19.350Z,96.17
2018-03-24T00:57:19.234Z,96.73
2018-03-24T00:59:12.005Z,96.55
2018-03-24T01:00:11.887Z,96.45
2018-03-24T01:02:04.665Z,96.64
2018-03-24T01:03:04.554Z,95.98
2018-03-24T01:04:57.335Z,96.08
2018-03-24T01:05:57.177Z,95.88
2018-03-24T01:07:49.932Z,96.08
2018-03-24T01:08:49.830Z,96.26
2018-03-24T01:10:42.597Z,96.17
2018-03-24T01:11:42.471Z,96.83
2018-03-24T01:13:35.220Z,96.73
2018-03-24T01:14:35.134Z,96.55
2018-03-24T01:16:27.907Z,96.45
2018-03-24T01:17:27.813Z,96.83
2018-03-24T01:19:20.530Z,96.55
2018-03-24T01:20:20.418Z,97.21
2018-03-24T01:22:13.199Z,97.31
2018-03-24T01:23:13.062Z,97.12
2018-03-24T01:25:05.807Z,97.40
2018-03-24T01:26:05.710Z,97.31
2018-03-24T01:27:58.470Z,97.21
2018-03-24T01:28:58.361Z,97.45
2018-03-24T01:30:51.109Z,97.45
2018-03-24T01:31:51.032Z,97.07
2018-03-24T01:33:43.763Z,97.16
2018-03-24T01:34:43.664Z,97.16
2018-03-24T01:36:36.927Z,97.64
2018-03-24T01:37:36.810Z,97.26
2018-03-24T01:39:29.596Z,97.64
2018-03-24T01:40:29.473Z,97.35
2018-03-24T01:42:22.797Z,97.16
2018-03-24T01:43:22.685Z,97.64
2018-03-24T01:45:15.386Z,97.26
2018-03-24T01:46:15.288Z,97.45
2018-03-24T01:48:08.023Z,97.54
2018-03-24T01:49:07.933Z,97.64
2018-03-24T01:51:00.696Z,97.73
2018-03-24T01:52:00.610Z,97.73
2018-03-24T01:53:53.354Z,97.26
2018-03-24T01:54:53.211Z,97.45
2018-03-24T01:56:45.977Z,97.64
2018-03-24T01:57:45.852Z,97.26
2018-03-24T01:59:38.598Z,98.02
2018-03-24T02:00:38.498Z,97.35
2018-03-24T02:02:31.301Z,98.49
2018-03-24T02:03:31.147Z,98.30
2018-03-24T02:05:25.461Z,98.30
2018-03-24T02:06:25.330Z,98.30
2018-03-24T02:08:18.124Z,98.39
2018-03-24T02:09:17.993Z,98.49
2018-03-24T02:11:10.733Z,98.49
2018-03-24T02:12:10.629Z,98.49
2018-03-24T02:14:03.921Z,98.30
2018-03-24T02:15:03.835Z,98.68
2018-03-24T02:16:56.563Z,98.77
2018-03-24T02:17:56.439Z,98.58
2018-03-24T02:19:49.224Z,98.49
2018-03-24T02:20:49.093Z,98.96
2018-03-24T02:22:43.369Z,99.63
2018-03-24T02:23:43.297Z,99.53
2018-03-24T02:25:36.047Z,99.25
2018-03-24T02:26:35.915Z,99.25
2018-03-24T02:28:28.702Z,99.25
2018-03-24T02:29:28.566Z,99.06
2018-03-24T02:31:21.368Z,99.25
2018-03-24T02:32:21.208Z,99.34
2018-03-24T02:34:13.995Z,99.44
2018-03-24T02:35:13.865Z,99.44
2018-03-24T02:37:06.643Z,99.53
2018-03-24T02:38:06.505Z,99.34
2018-03-24T02:39:59.810Z,99.53
2018-03-24T02:40:59.659Z,99.72
2018-03-24T02:42:52.508Z,99.82
2018-03-24T02:43:52.303Z,99.82
2018-03-24T02:45:46.611Z,99.99
2018-03-24T02:46:46.499Z,99.99
2018-03-24T02:48:39.273Z,99.99
2018-03-24T02:49:39.702Z,99.99
2018-03-24T02:51:31.914Z,99.63
2018-03-24T02:52:31.784Z,99.82
2018-03-24T02:54:24.539Z,99.72
2018-03-24T02:55:24.429Z,99.25
2018-03-24T02:57:17.724Z,99.34
2018-03-24T02:58:17.590Z,99.44
2018-03-24T03:00:10.892Z,99.53
2018-03-24T03:01:10.752Z,99.53
2018-03-24T03:03:05.066Z,98.87
2018-03-24T03:04:04.935Z,98.96
2018-03-24T03:05:57.705Z,98.96
2018-03-24T03:06:57.583Z,98.87
2018-03-24T03:08:50.870Z,98.68
2018-03-24T03:09:50.738Z,98.49
2018-03-24T03:11:43.492Z,98.49
2018-03-24T03:12:43.408Z,98.68
2018-03-24T03:14:36.676Z,98.77
2018-03-24T03:15:36.578Z,98.87
2018-03-24T03:17:29.324Z,99.06
2018-03-24T03:18:29.229Z,98.96
2018-03-24T03:20:21.969Z,99.53
2018-03-24T03:21:21.854Z,99.53
2018-03-24T03:23:14.591Z,99.53
2018-03-24T03:24:14.509Z,99.15
2018-03-24T03:26:07.252Z,99.34
2018-03-24T03:27:07.145Z,99.72
2018-03-24T03:28:59.904Z,99.63
2018-03-24T03:29:59.808Z,99.15
2018-03-24T03:31:52.544Z,99.25
2018-03-24T03:32:52.431Z,98.58
2018-03-24T03:34:45.201Z,98.49
2018-03-24T03:35:45.069Z,97.64
2018-03-24T03:37:37.852Z,98.11
2018-03-24T03:38:37.735Z,97.92
2018-03-24T03:40:30.482Z,97.64
2018-03-24T03:41:30.368Z,97.64
2018-03-24T03:43:23.162Z,97.45
2018-03-24T03:44:23.009Z,97.45
2018-03-24T03:46:15.800Z,97.64
2018-03-24T03:47:15.661Z,97.35
2018-03-24T03:49:08.424Z,98.02
2018-03-24T03:50:08.355Z,98.02
2018-03-24T03:52:01.119Z,98.21
2018-03-24T03:53:00.964Z,98.30
2018-03-24T03:54:53.733Z,98.11
2018-03-24T03:55:53.598Z,98.58
2018-03-24T03:57:46.377Z,98.96
2018-03-24T03:58:46.266Z,98.96
2018-03-24T04:00:39.032Z,99.53
2018-03-24T04:01:38.900Z,99.34
2018-03-24T04:03:31.696Z,99.44
2018-03-24T04:04:31.564Z,99.44
2018-03-24T04:06:24.309Z,99.44
2018-03-24T04:07:24.195Z,99.44
2018-03-24T04:09:16.963Z,99.15
2018-03-24T04:10:16.848Z,99.72
2018-03-24T04:12:10.112Z,98.87
2018-03-24T04:13:09.996Z,99.06
2018-03-24T04:15:03.278Z,99.63
2018-03-24T04:16:03.163Z,99.44
2018-03-24T04:17:55.925Z,99.44
2018-03-24T04:18:55.803Z,99.53
2018-03-24T04:20:48.559Z,99.44
2018-03-24T04:21:48.455Z,99.34
2018-03-24T04:23:41.250Z,99.34
2018-03-24T04:24:41.140Z,99.34
2018-03-24T04:26:33.891Z,99.63
2018-03-24T04:27:33.769Z,99.44
2018-03-24T04:29:26.504Z,99.44
2018-03-24T04:30:26.389Z,99.44
2018-03-24T04:32:19.167Z,99.63
2018-03-24T04:33:19.040Z,99.53
2018-03-24T04:35:11.794Z,99.58
2018-03-24T04:36:11.686Z,99.44
2018-03-24T04:38:04.463Z,99.34
2018-03-24T04:39:04.368Z,99.06
2018-03-24T04:40:57.084Z,99.25
2018-03-24T04:41:56.978Z,99.34
2018-03-24T04:43:49.760Z,99.63
2018-03-24T04:44:49.631Z,99.53
2018-03-24T04:46:42.483Z,99.34
2018-03-24T04:47:42.383Z,99.34
2018-03-24T04:49:35.136Z,99.34
2018-03-24T04:50:35.019Z,99.34
2018-03-24T04:52:28.315Z,99.34
2018-03-24T04:53:28.224Z,99.34
2018-03-24T04:55:20.954Z,99.44
2018-03-24T04:56:20.850Z,99.53
2018-03-24T04:58:13.576Z,99.44
2018-03-24T04:59:13.496Z,99.44
2018-03-24T05:01:06.366Z,99.25
2018-03-24T05:02:06.235Z,99.25
2018-03-24T05:03:59.051Z,99.44
2018-03-24T05:04:58.872Z,99.44
2018-03-24T05:06:52.190Z,99.53
2018-03-24T05:07:52.030Z,99.44
2018-03-24T05:09:45.352Z,98.87
2018-03-24T05:10:45.221Z,98.82
2018-03-24T05:12:38.484Z,99.06
2018-03-24T05:13:38.351Z,98.91
2018-03-24T05:15:31.614Z,98.44
2018-03-24T05:16:31.513Z,98.77
2018-03-24T05:18:24.275Z,99.01
2018-03-24T05:19:24.162Z,98.96
2018-03-24T05:21:17.412Z,98.44
2018-03-24T05:22:17.317Z,98.87
2018-03-24T05:24:10.611Z,98.87
2018-03-24T05:25:10.473Z,99.63
2018-03-24T05:27:03.229Z,99.53
2018-03-24T05:28:03.144Z,99.39
2018-03-24T05:29:55.885Z,99.48
2018-03-24T05:30:55.773Z,99.72
2018-03-24T05:32:48.621Z,99.53
2018-03-24T05:33:48.520Z,99.63
2018-03-24T05:35:41.292Z,99.53
2018-03-24T05:36:41.171Z,99.29
2018-03-24T05:38:33.915Z,99.25
2018-03-24T05:39:33.813Z,99.34
2018-03-24T05:41:26.569Z,99.53
2018-03-24T05:42:26.466Z,99.44
2018-03-24T05:44:19.240Z,99.44
2018-03-24T05:45:19.159Z,99.34
2018-03-24T05:47:12.430Z,99.34
2018-03-24T05:48:12.277Z,99.44
2018-03-24T05:50:05.028Z,99.82
2018-03-24T05:51:04.952Z,99.53
2018-03-24T05:52:57.708Z,99.15
2018-03-24T05:53:57.582Z,98.96
2018-03-24T05:55:50.846Z,98.87
2018-03-24T05:56:50.718Z,98.68
2018-03-24T05:58:43.574Z,98.87
2018-03-24T05:59:43.468Z,98.77
2018-03-24T06:01:36.253Z,98.11
2018-03-24T06:02:36.115Z,98.87
2018-03-24T06:04:28.871Z,98.68
2018-03-24T06:05:28.771Z,98.77
2018-03-24T06:07:21.520Z,98.58
2018-03-24T06:08:21.418Z,98.87
2018-03-24T06:10:14.154Z,98.49
2018-03-24T06:11:14.070Z,98.68
2018-03-24T06:13:06.925Z,98.02
2018-03-24T06:14:06.809Z,98.39
2018-03-24T06:16:00.105Z,98.39
2018-03-24T06:16:59.975Z,98.49
2018-03-24T06:18:52.737Z,98.11
2018-03-24T06:19:52.626Z,98.39
2018-03-24T06:21:45.878Z,97.92
2018-03-24T06:22:45.784Z,97.35
2018-03-24T06:24:38.532Z,97.50
2018-03-24T06:25:38.430Z,97.35
2018-03-24T06:27:31.203Z,97.50
2018-03-24T06:28:31.103Z,96.73
2018-03-24T06:30:23.963Z,96.73
2018-03-24T06:31:23.719Z,96.92
2018-03-24T06:33:16.560Z,96.64
2018-03-24T06:34:16.476Z,96.26
2018-03-24T06:36:09.741Z,95.79
2018-03-24T06:37:09.630Z,95.98
2018-03-24T06:39:02.414Z,95.41
2018-03-24T06:40:02.319Z,95.60
2018-03-24T06:41:55.029Z,95.12
2018-03-24T06:42:54.937Z,95.03
2018-03-24T06:44:47.772Z,95.12
2018-03-24T06:45:47.565Z,94.84
2018-03-24T06:47:40.324Z,95.22
2018-03-24T06:48:40.222Z,94.65
2018-03-24T06:50:33.004Z,94.56
2018-03-24T06:51:32.865Z,94.74
2018-03-24T06:53:25.606Z,94.42
2018-03-24T06:54:25.527Z,94.79
2018-03-24T06:56:18.291Z,94.23
2018-03-24T06:57:18.170Z,94.32
2018-03-24T06:59:12.002Z,94.32
2018-03-24T07:00:11.328Z,94.13
2018-03-24T07:02:04.185Z,94.42
2018-03-24T07:03:04.074Z,93.65
2018-03-24T07:04:56.831Z,93.27
2018-03-24T07:05:56.712Z,92.71
2018-03-24T07:07:49.486Z,92.52
2018-03-24T07:08:49.376Z,92.33
2018-03-24T07:10:42.656Z,92.33
2018-03-24T07:11:42.527Z,92.04
2018-03-24T07:13:35.291Z,91.85
2018-03-24T07:14:35.164Z,91.85
2018-03-24T07:16:27.919Z,91.75
2018-03-24T07:17:27.836Z,92.33
2018-03-24T07:19:20.699Z,91.42
2018-03-24T07:20:20.473Z,90.95
2018-03-24T07:22:13.209Z,91.24
2018-03-24T07:23:13.107Z,91.61
2018-03-24T07:25:05.859Z,90.76
2018-03-24T07:26:05.768Z,90.66
2018-03-24T07:27:58.500Z,90.09
2018-03-24T07:28:58.409Z,90.38
2018-03-24T07:30:51.185Z,90.76
2018-03-24T07:31:51.077Z,90.57
2018-03-24T07:33:43.823Z,90.57
2018-03-24T07:34:43.704Z,91.42
2018-03-24T07:36:36.466Z,91.42
2018-03-24T07:37:36.346Z,90.76
2018-03-24T07:39:29.226Z,91.33
2018-03-24T07:40:29.138Z,90.85
2018-03-24T07:42:22.377Z,89.72
2018-03-24T07:43:22.252Z,88.57
2018-03-24T07:45:14.998Z,88.05
2018-03-24T07:46:14.903Z,87.95
2018-03-24T07:48:08.223Z,87.19
2018-03-24T07:49:08.052Z,87.01
2018-03-24T07:51:00.809Z,87.29
2018-03-24T07:52:00.713Z,87.38
2018-03-24T07:53:53.975Z,86.82
2018-03-24T07:54:53.862Z,86.82
2018-03-24T07:56:46.714Z,87.01
2018-03-24T07:57:46.526Z,87.19
2018-03-24T07:59:39.302Z,86.05
2018-03-24T08:00:39.179Z,86.15
2018-03-24T08:02:32.414Z,86.29
2018-03-24T08:03:32.339Z,86.47
2018-03-24T08:05:25.597Z,86.47
2018-03-24T08:06:25.482Z,86.38
2018-03-24T08:08:18.228Z,86.29
2018-03-24T08:09:18.140Z,85.53
2018-03-24T08:11:11.404Z,86.38
2018-03-24T08:12:11.282Z,85.34
2018-03-24T08:14:04.137Z,84.95
2018-03-24T08:15:04.034Z,85.34
2018-03-24T08:16:56.802Z,84.62
2018-03-24T08:17:56.688Z,83.62
2018-03-24T08:19:50.983Z,83.48
2018-03-24T08:20:50.882Z,83.67
2018-03-24T08:22:43.619Z,83.29
2018-03-24T08:23:43.515Z,83.76
2018-03-24T08:25:36.298Z,83.29
2018-03-24T08:26:36.162Z,83.10
2018-03-24T08:28:28.920Z,82.71
2018-03-24T08:29:28.808Z,81.58
2018-03-24T08:31:21.594Z,80.53
2018-03-24T08:32:21.462Z,80.05
2018-03-24T08:34:15.744Z,80.34
2018-03-24T08:35:15.644Z,79.96
2018-03-24T08:37:08.393Z,79.77
2018-03-24T08:38:08.292Z,79.96
2018-03-24T08:40:01.033Z,80.15
2018-03-24T08:41:00.940Z,80.05
2018-03-24T08:42:53.712Z,81.48
2018-03-24T08:43:53.598Z,82.43
2018-03-24T08:45:46.328Z,84.05
2018-03-24T08:46:46.259Z,83.48
2018-03-24T08:48:38.995Z,83.39
2018-03-24T08:49:38.906Z,83.48
2018-03-24T08:51:31.643Z,83.58
2018-03-24T08:52:31.529Z,83.29
2018-03-24T08:54:24.312Z,83.86
2018-03-24T08:55:24.218Z,83.67
2018-03-24T08:57:17.013Z,83.86
2018-03-24T08:58:16.922Z,83.19
2018-03-24T09:00:09.688Z,83.48
2018-03-24T09:01:09.564Z,83.58
2018-03-24T09:03:02.315Z,83.48
2018-03-24T09:04:02.226Z,84.33
2018-03-24T09:05:54.968Z,83.86
2018-03-24T09:06:54.889Z,83.39
2018-03-24T09:08:47.661Z,83.58
2018-03-24T09:09:47.506Z,83.39
2018-03-24T09:11:40.368Z,83.86
2018-03-24T09:12:40.260Z,83.58
2018-03-24T09:14:33.034Z,84.33
2018-03-24T09:15:32.930Z,84.14
2018-03-24T09:17:25.679Z,83.67
2018-03-24T09:18:25.559Z,84.14
2018-03-24T09:20:18.323Z,83.71
2018-03-24T09:21:18.205Z,83.14
2018-03-24T09:23:10.966Z,82.95
2018-03-24T09:24:10.851Z,82.95
2018-03-24T09:26:03.659Z,83.90
2018-03-24T09:27:03.491Z,83.62
2018-03-24T09:28:56.253Z,82.70
2018-03-24T09:29:56.143Z,83.37
2018-03-24T09:31:48.933Z,83.47
2018-03-24T09:32:48.782Z,81.28
2018-03-24T09:34:41.537Z,80.23
2018-03-24T09:35:41.433Z,80.23
2018-03-24T09:37:34.207Z,79.28
2018-03-24T09:38:34.111Z,79.09
2018-03-24T09:40:26.859Z,80.33
2018-03-24T09:41:26.748Z,79.57
2018-03-24T09:43:19.504Z,79.28
2018-03-24T09:44:19.418Z,78.99
2018-03-24T09:46:12.117Z,79.19
2018-03-24T09:47:12.070Z,80.13
2018-03-24T09:49:04.811Z,79.57
2018-03-24T09:50:04.673Z,77.95
2018-03-24T09:51:57.414Z,77.37
2018-03-24T09:52:57.315Z,76.61
2018-03-24T09:54:50.076Z,76.61
2018-03-24T09:55:49.972Z,75.95
2018-03-24T09:57:42.724Z,76.42
2018-03-24T09:58:42.615Z,75.70
2018-03-24T10:00:35.898Z,75.32
2018-03-24T10:01:35.771Z,75.13
2018-03-24T10:03:28.545Z,75.23
2018-03-24T10:04:28.423Z,75.32
2018-03-24T10:06:21.178Z,74.60
2018-03-24T10:07:21.083Z,74.69
2018-03-24T10:09:14.322Z,74.40
2018-03-24T10:10:14.256Z,73.83
2018-03-24T10:12:06.989Z,73.83
2018-03-24T10:13:06.889Z,73.45
2018-03-24T10:14:59.641Z,72.50
2018-03-24T10:15:59.549Z,71.32
2018-03-24T10:17:52.283Z,73.13
2018-03-24T10:18:52.175Z,71.45
2018-03-24T10:20:45.054Z,71.83
2018-03-24T10:21:45.003Z,70.78
2018-03-24T10:23:37.680Z,71.32
2018-03-24T10:24:37.594Z,71.13
2018-03-24T10:26:30.304Z,71.22
2018-03-24T10:27:30.225Z,71.61
2018-03-24T10:29:23.118Z,71.42
2018-03-24T10:30:22.986Z,69.89
2018-03-24T10:32:16.246Z,70.84
2018-03-24T10:33:16.126Z,70.65
2018-03-24T10:35:10.400Z,69.32
2018-03-24T10:36:10.314Z,69.04
2018-03-24T10:38:03.158Z,70.94
2018-03-24T10:39:03.055Z,71.98
2018-03-24T10:40:55.812Z,71.70
2018-03-24T10:41:55.701Z,70.27
2018-03-24T10:43:48.476Z,67.70
2018-03-24T10:44:48.341Z,69.38
2018-03-24T10:46:41.210Z,70.18
2018-03-24T10:47:41.118Z,70.75
2018-03-24T10:49:33.853Z,69.60
2018-03-24T10:50:33.944Z,69.10
2018-03-24T10:52:27.018Z,70.52
2018-03-24T10:53:27.168Z,70.62
2018-03-24T10:55:19.763Z,69.85
2018-03-24T10:56:19.654Z,69.95
2018-03-24T10:58:12.910Z,69.10
2018-03-24T10:59:12.806Z,68.05
2018-03-24T11:01:05.560Z,69.67
2018-03-24T11:02:05.910Z,70.43
2018-03-24T11:03:58.400Z,67.47
2018-03-24T11:04:58.322Z,67.00
2018-03-24T11:06:51.073Z,65.10
2018-03-24T11:07:50.958Z,64.62
2018-03-24T11:09:43.699Z,63.01
2018-03-24T11:10:43.609Z,63.01
2018-03-24T11:12:36.374Z,64.62
2018-03-24T11:13:36.247Z,64.43
2018-03-24T11:15:28.992Z,63.86
2018-03-24T11:16:28.901Z,64.18
2018-03-24T11:18:22.159Z,64.28
2018-03-24T11:19:21.540Z,64.15
2018-03-24T11:21:14.294Z,63.39
2018-03-24T11:22:14.200Z,64.53
2018-03-24T11:24:06.973Z,65.38
2018-03-24T11:25:06.857Z,65.00
2018-03-24T11:26:59.605Z,64.84
2018-03-24T11:27:59.497Z,64.65
2018-03-24T11:29:52.278Z,64.37
2018-03-24T11:30:52.132Z,64.75
2018-03-24T11:32:44.893Z,62.65
2018-03-24T11:33:44.777Z,63.60
2018-03-24T11:35:37.554Z,61.61
2018-03-24T11:36:37.431Z,61.51
2018-03-24T11:38:30.187Z,62.97
2018-03-24T11:39:30.094Z,63.07
2018-03-24T11:41:22.850Z,61.73
2018-03-24T11:42:22.761Z,61.64
2018-03-24T11:44:15.989Z,60.97
2018-03-24T11:45:15.880Z,61.54
2018-03-24T11:47:09.152Z,62.88
2018-03-24T11:48:09.053Z,62.97
2018-03-24T11:50:01.783Z,62.68
2018-03-24T11:51:01.710Z,62.49
2018-03-24T11:52:55.063Z,62.97
2018-03-24T11:53:54.331Z,62.40
2018-03-24T11:55:47.078Z,62.88
2018-03-24T11:56:46.983Z,63.26
2018-03-24T11:58:39.834Z,64.78
2018-03-24T11:59:39.733Z,64.21
2018-03-24T12:01:32.478Z,64.87
2018-03-24T12:02:32.377Z,65.83
2018-03-24T12:04:25.191Z,67.35
2018-03-24T12:05:25.047Z,67.99
2018-03-24T12:07:17.774Z,68.18
2018-03-24T12:08:17.683Z,67.61
2018-03-24T12:10:10.950Z,66.85
2018-03-24T12:11:10.838Z,66.46
2018-03-24T12:13:03.673Z,65.89
2018-03-24T12:14:03.580Z,66.27
2018-03-24T12:15:56.358Z,66.56
2018-03-24T12:16:56.231Z,65.99
2018-03-24T12:18:48.978Z,66.27
2018-03-24T12:19:48.877Z,66.46
2018-03-24T12:21:41.739Z,66.18
2018-03-24T12:22:41.630Z,67.22
2018-03-24T12:24:34.368Z,65.80
2018-03-24T12:25:34.285Z,66.31
2018-03-24T12:27:27.032Z,65.64
2018-03-24T12:28:26.919Z,64.40
2018-03-24T12:30:19.659Z,64.31
2018-03-24T12:31:19.571Z,64.69
2018-03-24T12:33:12.329Z,63.73
2018-03-24T12:34:12.214Z,63.64
2018-03-24T12:36:04.965Z,64.59
2018-03-24T12:37:04.874Z,64.69
2018-03-24T12:38:57.738Z,64.50
2018-03-24T12:39:57.615Z,64.78
2018-03-24T12:41:50.369Z,64.50
2018-03-24T12:42:50.271Z,64.31
2018-03-24T12:44:43.018Z,65.36
2018-03-24T12:45:42.922Z,65.48
2018-03-24T12:47:35.773Z,64.24
2018-03-24T12:48:35.653Z,64.43
2018-03-24T12:50:28.528Z,64.34
2018-03-24T12:51:28.305Z,64.53
2018-03-24T12:53:21.095Z,64.53
2018-03-24T12:54:20.965Z,63.10
2018-03-24T12:56:13.697Z,62.43
2018-03-24T12:57:13.594Z,63.39
2018-03-24T12:59:06.379Z,63.39
2018-03-24T13:00:06.248Z,63.92
2018-03-24T13:02:00.535Z,64.43
2018-03-24T13:03:00.441Z,62.91
2018-03-24T13:04:53.182Z,63.45
2018-03-24T13:05:53.104Z,64.87
2018-03-24T13:07:45.824Z,63.86
2018-03-24T13:08:45.728Z,63.73
2018-03-24T13:10:38.498Z,64.62
2018-03-24T13:11:38.384Z,64.81
2018-03-24T13:13:32.659Z,64.21
2018-03-24T13:14:32.557Z,64.43
2018-03-24T13:16:25.334Z,64.24
2018-03-24T13:17:25.206Z,64.91
2018-03-24T13:19:17.948Z,63.10
2018-03-24T13:20:17.867Z,62.43
2018-03-24T13:22:10.599Z,63.76
2018-03-24T13:23:10.506Z,63.57
2018-03-24T13:25:03.259Z,64.24
2018-03-24T13:26:03.141Z,64.18
2018-03-24T13:27:56.409Z,61.80
2018-03-24T13:28:56.317Z,62.08
2018-03-24T13:30:49.137Z,62.46
2018-03-24T13:31:48.942Z,61.04
2018-03-24T13:33:41.814Z,61.41
2018-03-24T13:34:41.696Z,61.22
2018-03-24T13:36:34.955Z,61.04
2018-03-24T13:37:34.881Z,60.84
2018-03-24T13:39:28.123Z,61.57
2018-03-24T13:40:28.027Z,61.67
2018-03-24T13:42:20.779Z,62.34
2018-03-24T13:43:20.657Z,61.86
2018-03-24T13:45:13.425Z,62.34
2018-03-24T13:46:13.315Z,61.80
2018-03-24T13:48:06.074Z,61.41
2018-03-24T13:49:05.964Z,60.81
2018-03-24T13:50:59.243Z,61.96
2018-03-24T13:51:59.155Z,61.96
2018-03-24T13:53:51.858Z,63.00
2018-03-24T13:54:51.788Z,62.72
2018-03-24T13:56:44.556Z,62.12
2018-03-24T13:57:44.418Z,62.02
2018-03-24T13:59:37.658Z,62.12
2018-03-24T14:00:37.586Z,62.12
2018-03-24T14:02:30.443Z,62.59
2018-03-24T14:03:30.330Z,63.00
2018-03-24T14:05:23.067Z,62.88
2018-03-24T14:06:22.974Z,62.97
2018-03-24T14:08:15.728Z,62.97
2018-03-24T14:09:15.635Z,63.35
2018-03-24T14:11:08.996Z,63.54
2018-03-24T14:12:08.265Z,63.54
2018-03-24T14:14:01.040Z,63.73
2018-03-24T14:15:00.910Z,63.64
2018-03-24T14:16:53.763Z,64.37
2018-03-24T14:17:53.676Z,64.21
2018-03-24T14:19:46.451Z,64.69
2018-03-24T14:20:46.300Z,64.31
2018-03-24T14:22:39.062Z,64.43
2018-03-24T14:23:38.949Z,63.67
2018-03-24T14:25:31.822Z,62.72
2018-03-24T14:26:31.695Z,62.84
2018-03-24T14:28:24.473Z,62.08
2018-03-24T14:29:24.382Z,61.13
2018-03-24T14:31:17.108Z,60.43
2018-03-24T14:32:17.009Z,59.86
2018-03-24T14:34:09.856Z,59.99
2018-03-24T14:35:09.746Z,59.48
2018-03-24T14:37:02.512Z,60.27
2018-03-24T14:38:02.390Z,60.27
2018-03-24T14:39:55.179Z,60.46
2018-03-24T14:40:55.040Z,60.46
2018-03-24T14:42:47.807Z,60.27
2018-03-24T14:43:47.699Z,59.51
2018-03-24T14:45:40.463Z,59.99
2018-03-24T14:46:40.332Z,60.27
2018-03-24T14:48:33.094Z,59.99
2018-03-24T14:49:32.980Z,59.51
2018-03-24T14:51:25.854Z,59.70
2018-03-24T14:52:25.763Z,60.27
2018-03-24T14:54:18.511Z,59.31
2018-03-24T14:55:18.377Z,59.44
2018-03-24T14:57:11.120Z,58.58
2018-03-24T14:58:11.034Z,58.58
2018-03-24T15:00:03.885Z,57.37
2018-03-24T15:01:03.775Z,57.24
2018-03-24T15:02:57.026Z,59.12
2018-03-24T15:03:56.930Z,59.99
2018-03-24T15:05:49.705Z,59.31
2018-03-24T15:06:49.615Z,60.36
2018-03-24T15:08:42.336Z,60.08
2018-03-24T15:09:42.230Z,59.79
2018-03-24T15:11:34.986Z,60.36
2018-03-24T15:12:34.889Z,60.46
2018-03-24T15:14:27.723Z,57.82
2018-03-24T15:15:27.621Z,57.82
2018-03-24T15:17:20.388Z,59.03
2018-03-24T15:18:20.275Z,59.22
2018-03-24T15:20:13.120Z,60.17
2018-03-24T15:21:13.029Z,60.46
2018-03-24T15:23:05.832Z,61.04
2018-03-24T15:24:05.678Z,59.99
2018-03-24T15:25:58.437Z,57.92
2018-03-24T15:26:58.396Z,56.89
2018-03-24T15:28:51.187Z,55.11
2018-03-24T15:29:51.066Z,54.63
2018-03-24T15:31:44.339Z,53.65
2018-03-24T15:32:44.249Z,55.27
2018-03-24T15:34:37.013Z,56.67
2018-03-24T15:35:36.894Z,57.31
2018-03-24T15:37:30.232Z,58.17
2018-03-24T15:38:30.135Z,58.65
2018-03-24T15:40:22.917Z,58.55
2018-03-24T15:41:22.777Z,59.89
2018-03-24T15:43:16.088Z,59.00
2018-03-24T15:44:15.954Z,59.95
2018-03-24T15:46:08.716Z,59.00
2018-03-24T15:47:08.589Z,59.38
2018-03-24T15:49:01.464Z,59.67
2018-03-24T15:50:01.333Z,59.95
2018-03-24T15:51:54.098Z,59.67
2018-03-24T15:52:54.007Z,59.48
2018-03-24T15:54:46.744Z,59.70
2018-03-24T15:55:46.629Z,60.08
2018-03-24T15:57:39.371Z,59.19
2018-03-24T15:58:39.276Z,59.00
2018-03-24T16:00:33.151Z,59.00
2018-03-24T16:01:32.435Z,59.38
2018-03-24T16:03:25.715Z,59.83
2018-03-24T16:04:25.610Z,61.07
2018-03-24T16:06:18.378Z,60.97
2018-03-24T16:07:18.244Z,60.78
2018-03-24T16:09:11.005Z,61.35
2018-03-24T16:10:10.894Z,61.73
2018-03-24T16:12:03.774Z,61.25
2018-03-24T16:13:03.665Z,61.54
2018-03-24T16:14:56.394Z,61.42
2018-03-24T16:15:56.288Z,62.18
2018-03-24T16:17:49.148Z,61.51
2018-03-24T16:18:49.030Z,61.61
2018-03-24T16:20:41.795Z,62.37
2018-03-24T16:21:41.688Z,62.56
2018-03-24T16:23:34.456Z,62.56
2018-03-24T16:24:34.339Z,62.37
2018-03-24T16:26:27.076Z,62.56
2018-03-24T16:27:27.002Z,63.10
2018-03-24T16:29:19.760Z,63.10
2018-03-24T16:30:19.690Z,62.08
2018-03-24T16:32:12.409Z,63.10
2018-03-24T16:33:12.285Z,63.57
2018-03-24T16:35:06.029Z,63.10
2018-03-24T16:36:05.021Z,63.20
2018-03-24T16:37:58.228Z,63.48
2018-03-24T16:38:58.084Z,64.53
2018-03-24T16:40:50.841Z,64.05
2018-03-24T16:41:50.730Z,64.43
2018-03-24T16:43:43.575Z,64.43
2018-03-24T16:44:43.981Z,64.34
2018-03-24T16:46:36.252Z,64.31
2018-03-24T16:47:36.125Z,64.69
2018-03-24T16:49:28.898Z,64.50
2018-03-24T16:50:28.776Z,64.69
2018-03-24T16:52:22.076Z,64.59
2018-03-24T16:53:21.972Z,64.59
2018-03-24T16:55:14.770Z,64.97
2018-03-24T16:56:14.703Z,64.69
2018-03-24T16:58:07.444Z,65.16
2018-03-24T16:59:07.354Z,65.06
2018-03-24T17:01:00.093Z,64.97
2018-03-24T17:01:59.999Z,65.35
2018-03-24T17:03:52.839Z,65.22
2018-03-24T17:04:52.719Z,65.70
2018-03-24T17:06:45.495Z,65.32
2018-03-24T17:07:45.363Z,65.99
2018-03-24T17:09:38.270Z,66.17
2018-03-24T17:10:38.123Z,66.17
2018-03-24T17:12:30.889Z,66.36
2018-03-24T17:13:30.770Z,66.74
2018-03-24T17:15:24.034Z,66.74
2018-03-24T17:16:23.963Z,66.65
2018-03-24T17:18:16.687Z,67.50
2018-03-24T17:19:16.568Z,67.60
2018-03-24T17:21:10.900Z,68.07
2018-03-24T17:22:10.763Z,67.94
2018-03-24T17:24:03.657Z,68.42
2018-03-24T17:25:03.436Z,69.09
2018-03-24T17:26:56.183Z,69.85
2018-03-24T17:27:56.047Z,69.46
2018-03-24T17:29:48.792Z,70.13
2018-03-24T17:30:48.722Z,70.32
2018-03-24T17:32:41.466Z,70.99
2018-03-24T17:33:41.338Z,71.18
2018-03-24T17:35:34.086Z,71.71
2018-03-24T17:36:33.988Z,72.28
2018-03-24T17:38:26.752Z,72.56
2018-03-24T17:39:26.647Z,72.47
2018-03-24T17:41:19.888Z,72.85
2018-03-24T17:42:19.800Z,73.33
2018-03-24T17:44:12.583Z,73.33
2018-03-24T17:45:12.448Z,73.61
2018-03-24T17:47:05.226Z,73.86
2018-03-24T17:48:05.091Z,74.33
2018-03-24T17:49:58.358Z,75.28
2018-03-24T17:50:58.243Z,75.76
2018-03-24T17:52:51.102Z,75.85
2018-03-24T17:53:51.009Z,76.71
2018-03-24T17:55:43.786Z,76.80
2018-03-24T17:56:43.655Z,77.62
2018-03-24T17:58:36.399Z,78.28
2018-03-24T17:59:36.301Z,77.81
2018-03-24T18:01:29.073Z,78.28
2018-03-24T18:02:28.945Z,79.04
2018-03-24T18:04:22.235Z,79.42
2018-03-24T18:05:22.113Z,79.80
2018-03-24T18:07:15.373Z,79.10
2018-03-24T18:08:15.286Z,79.66
2018-03-24T18:10:08.517Z,80.33
2018-03-24T18:11:08.418Z,79.57
2018-03-24T18:13:01.387Z,81.09
2018-03-24T18:14:01.071Z,80.99
2018-03-24T18:15:53.901Z,81.47
2018-03-24T18:16:53.811Z,81.37
2018-03-24T18:18:47.113Z,81.66
2018-03-24T18:19:46.975Z,81.56
2018-03-24T18:21:40.250Z,81.71
2018-03-24T18:22:40.158Z,82.47
2018-03-24T18:24:33.005Z,82.56
2018-03-24T18:25:32.882Z,83.04
2018-03-24T18:27:25.632Z,83.61
2018-03-24T18:28:25.531Z,84.46
2018-03-24T18:30:18.286Z,84.17
2018-03-24T18:31:18.777Z,84.65
2018-03-24T18:33:11.041Z,84.65